Time;durP1;ratioP1;P1;durP2;ratioP2;P2;SDS_P1;SDS_P2;PMS_P1;PMS_P2;Temp;Humidity;BMP_temperature;BMP_pressure;BME280_temperature;BME280_humidity;BME280_pressure;Samples;Min_cycle;Max_cycle;Signal;HPM_P1;HPM_P2
2022/11/15 00:01:08;;;;;;;;;;;7.30;99.90;;;;;;5002364;28;20011;-91
2022/11/15 00:03:34;;;;;;;;;;;7.80;99.90;;;;;;5027707;28;19925;-91
2022/11/15 00:06:04;;;;;;;;;;;6.10;99.90;;;;;;5017545;28;20012;-90
2022/11/15 00:08:33;;;;;;;;;;;7.10;99.90;;;;;;5028889;28;20011;-89
2022/11/15 00:10:59;;;;;;;;;;;8.70;99.90;;;;;;5016205;28;20261;-89
2022/11/15 00:13:25;;;;;;;;;;;7.00;99.90;;;;;;5016554;28;19931;-88
2022/11/15 00:15:51;;;;;;;;;;;6.90;99.90;;;;;;5015584;28;19929;-89
2022/11/15 00:18:17;;;;;;;;;;;7.00;99.90;;;;;;5018345;28;19944;-89
2022/11/15 00:20:43;;;;;;;;;;;6.90;99.90;;;;;;5018970;28;19925;-89
2022/11/15 00:23:08;;;;;;;;;;;7.10;99.90;;;;;;5032970;28;19979;-89
2022/11/15 00:25:34;;;;;;;;;;;7.00;99.90;;;;;;5019232;28;20388;-89
2022/11/15 00:28:00;;;;;;;;;;;6.60;99.90;;;;;;5018725;28;19925;-89
2022/11/15 00:30:29;;;;;;;;;;;6.50;99.90;;;;;;5018813;28;20384;-89
2022/11/15 00:32:55;;;;;;;;;;;8.30;99.90;;;;;;5015588;28;19925;-89
2022/11/15 00:35:21;;;;;;;;;;;7.00;99.90;;;;;;5017454;28;19931;-88
2022/11/15 00:37:50;;;;;;;;;;;6.50;99.90;;;;;;5018248;28;19943;-89
2022/11/15 00:40:18;;;;;;;;;;;6.50;99.90;;;;;;5035878;28;20169;-89
2022/11/15 00:42:44;;;;;;;;;;;7.20;99.90;;;;;;5034827;28;19924;-89
2022/11/15 00:45:12;;;;;;;;;;;5.40;99.90;;;;;;5036250;28;19932;-89
2022/11/15 00:47:38;;;;;;;;;;;6.60;99.90;;;;;;5033420;28;19988;-89
2022/11/15 00:50:04;;;;;;;;;;;6.60;99.90;;;;;;5038716;28;19928;-88
2022/11/15 00:52:35;;;;;;;;;;;6.70;99.90;;;;;;5036556;28;19919;-88
2022/11/15 00:55:03;;;;;;;;;;;7.10;99.90;;;;;;5056684;28;19913;-88
2022/11/15 00:57:29;;;;;;;;;;;6.90;99.90;;;;;;5037721;28;19920;-88
2022/11/15 00:59:55;;;;;;;;;;;6.90;99.90;;;;;;5035583;28;19956;-89
2022/11/15 01:02:23;;;;;;;;;;;6.90;99.90;;;;;;5035328;28;19913;-87
2022/11/15 01:04:58;;;;;;;;;;;7.20;99.90;;;;;;5028100;28;19918;-88
2022/11/15 01:07:24;;;;;;;;;;;7.60;99.90;;;;;;5032884;28;19973;-89
2022/11/15 01:09:53;;;;;;;;;;;7.00;99.90;;;;;;5028685;28;19928;-88
2022/11/15 01:12:21;;;;;;;;;;;6.00;99.90;;;;;;5030593;28;19912;-88
2022/11/15 01:14:47;;;;;;;;;;;6.90;99.90;;;;;;5033660;28;19924;-87
2022/11/15 01:17:13;;;;;;;;;;;5.70;99.90;;;;;;5033072;28;19925;-89
2022/11/15 01:19:41;;;;;;;;;;;6.80;99.90;;;;;;4995518;28;19925;-88
2022/11/15 01:22:06;;;;;;;;;;;6.80;99.90;;;;;;5002692;28;19929;-90
2022/11/15 01:24:33;;;;;;;;;;;7.00;99.90;;;;;;5016329;28;19925;-89
2022/11/15 01:26:58;;;;;;;;;;;7.00;99.90;;;;;;5009188;28;19924;-89
2022/11/15 01:29:28;;;;;;;;;;;6.70;99.90;;;;;;4987806;28;20015;-90
2022/11/15 01:31:54;;;;;;;;;;;6.90;99.90;;;;;;5019829;28;20017;-89
2022/11/15 01:34:19;;;;;;;;;;;6.80;99.90;;;;;;4999970;28;20020;-89
2022/11/15 01:36:50;;;;;;;;;;;7.00;99.90;;;;;;5004081;28;19980;-88
2022/11/15 01:39:26;;;;;;;;;;;6.80;99.90;;;;;;5005057;28;19935;-89
2022/11/15 01:41:54;;;;;;;;;;;7.00;99.90;;;;;;4999558;28;20365;-89
2022/11/15 01:44:41;;;;;;;;;;;6.90;99.90;;;;;;5002097;28;20032;-90
2022/11/15 01:47:23;;;;;;;;;;;6.80;99.90;;;;;;5020699;28;19987;-89
2022/11/15 01:50:03;;;;;;;;;;;7.00;99.90;;;;;;5012656;28;20075;-89
2022/11/15 01:52:31;;;;;;;;;;;6.80;99.90;;;;;;5013563;28;19937;-88
2022/11/15 01:55:09;;;;;;;;;;;7.40;99.90;;;;;;4997366;28;19929;-88
2022/11/15 01:57:35;;;;;;;;;;;6.80;99.90;;;;;;4997171;28;19960;-89
2022/11/15 02:00:04;;;;;;;;;;;6.90;99.90;;;;;;5014694;28;19925;-87
2022/11/15 02:02:30;;;;;;;;;;;6.90;99.90;;;;;;5000702;28;19925;-88
2022/11/15 02:04:56;;;;;;;;;;;6.80;99.90;;;;;;5015915;28;20292;-89
2022/11/15 02:07:22;;;;;;;;;;;7.10;99.90;;;;;;5009239;28;19936;-88
2022/11/15 02:09:48;;;;;;;;;;;5.50;99.90;;;;;;5017671;28;19924;-88
2022/11/15 02:12:15;;;;;;;;;;;6.90;99.90;;;;;;5011817;28;19947;-89
2022/11/15 02:14:42;;;;;;;;;;;6.90;99.90;;;;;;5008948;28;19925;-88
2022/11/15 02:17:08;;;;;;;;;;;6.80;99.90;;;;;;5016950;28;19929;-88
2022/11/15 02:19:52;;;;;;;;;;;9.00;99.90;;;;;;5017659;28;19936;-88
2022/11/15 02:22:21;;;;;;;;;;;5.80;99.90;;;;;;5015327;28;19932;-88
2022/11/15 02:24:56;;;;;;;;;;;6.80;99.90;;;;;;5013466;28;20012;-89
2022/11/15 02:27:54;;;;;;;;;;;6.90;99.90;;;;;;5017418;28;19948;-89
2022/11/15 02:30:38;;;;;;;;;;;5.80;99.90;;;;;;4990844;28;19932;-89
2022/11/15 02:33:14;;;;;;;;;;;6.80;99.90;;;;;;5009405;28;19925;-89
2022/11/15 02:35:43;;;;;;;;;;;7.00;99.90;;;;;;5033706;28;19925;-89
2022/11/15 02:38:17;;;;;;;;;;;7.10;99.90;;;;;;5018816;28;19947;-89
2022/11/15 02:41:01;;;;;;;;;;;6.80;99.90;;;;;;5006526;28;19948;-89
2022/11/15 02:43:58;;;;;;;;;;;6.90;99.90;;;;;;5017048;28;19924;-89
2022/11/15 02:49:24;;;;;;;;;;;6.90;99.90;;;;;;5028744;28;19932;-89
2022/11/15 02:51:51;;;;;;;;;;;6.90;99.90;;;;;;5034223;28;19931;-90
2022/11/15 02:54:20;;;;;;;;;;;8.30;99.90;;;;;;5017069;28;19924;-90
2022/11/15 02:56:49;;;;;;;;;;;6.90;99.90;;;;;;5017502;28;20032;-90
2022/11/15 02:59:23;;;;;;;;;;;6.80;99.90;;;;;;5017510;28;19925;-89
2022/11/15 03:01:55;;;;;;;;;;;6.90;99.90;;;;;;5020486;28;19928;-89
2022/11/15 03:04:36;;;;;;;;;;;7.00;99.90;;;;;;5020449;28;19947;-89
2022/11/15 03:07:21;;;;;;;;;;;6.90;99.90;;;;;;5017832;28;19964;-89
2022/11/15 03:09:47;;;;;;;;;;;7.30;99.90;;;;;;5010047;28;20039;-89
2022/11/15 03:12:22;;;;;;;;;;;6.90;99.90;;;;;;5011508;28;20463;-89
2022/11/15 03:15:06;;;;;;;;;;;7.00;99.90;;;;;;5022557;28;19936;-89
2022/11/15 03:17:40;;;;;;;;;;;6.90;99.90;;;;;;5003033;28;19925;-89
2022/11/15 03:20:07;;;;;;;;;;;5.20;99.90;;;;;;5018814;28;19972;-89
2022/11/15 03:22:37;;;;;;;;;;;7.00;99.90;;;;;;5016035;28;19925;-89
2022/11/15 03:25:05;;;;;;;;;;;7.10;99.90;;;;;;5018064;28;19925;-88
2022/11/15 03:27:52;;;;;;;;;;;7.00;99.90;;;;;;5007347;28;19925;-89
2022/11/15 03:30:18;;;;;;;;;;;7.20;99.90;;;;;;5001031;28;19925;-90
2022/11/15 03:32:46;;;;;;;;;;;7.40;99.90;;;;;;5014332;28;20324;-89
2022/11/15 03:35:20;;;;;;;;;;;7.00;99.90;;;;;;4994825;28;19925;-87
2022/11/15 03:38:01;;;;;;;;;;;8.30;99.90;;;;;;5000156;28;20365;-88
2022/11/15 03:40:48;;;;;;;;;;;7.10;99.90;;;;;;5021844;28;19991;-89
2022/11/15 03:43:24;;;;;;;;;;;6.00;99.90;;;;;;5002405;28;19980;-89
2022/11/15 03:45:53;;;;;;;;;;;7.70;99.90;;;;;;5020914;28;20226;-89
2022/11/15 03:48:30;;;;;;;;;;;7.10;99.90;;;;;;5006169;28;20160;-89
2022/11/15 03:50:59;;;;;;;;;;;7.10;99.90;;;;;;5003448;28;19928;-88
2022/11/15 03:53:28;;;;;;;;;;;7.10;99.90;;;;;;4999017;28;19934;-89
2022/11/15 03:55:53;;;;;;;;;;;6.10;99.90;;;;;;5014635;28;19931;-89
2022/11/15 03:58:21;;;;;;;;;;;7.20;99.90;;;;;;5011284;28;19925;-88
2022/11/15 04:00:47;;;;;;;;;;;7.50;99.90;;;;;;5018237;28;19925;-89
2022/11/15 04:03:15;;;;;;;;;;;7.20;99.90;;;;;;5005416;28;19933;-89
2022/11/15 04:05:40;;;;;;;;;;;7.40;99.90;;;;;;5019135;28;19925;-89
2022/11/15 04:08:06;;;;;;;;;;;7.20;99.90;;;;;;5014060;28;20300;-89
2022/11/15 04:10:32;;;;;;;;;;;7.30;99.90;;;;;;4993312;28;20261;-90
2022/11/15 04:12:58;;;;;;;;;;;7.40;99.90;;;;;;5016438;28;20326;-90
2022/11/15 04:15:24;;;;;;;;;;;7.60;99.90;;;;;;5019518;28;19928;-89
2022/11/15 04:17:56;;;;;;;;;;;7.30;99.90;;;;;;5022725;28;19924;-90
2022/11/15 04:26:06;;;;;;;;;;;7.30;99.90;;;;;;5034391;28;19929;-89
2022/11/15 04:29:33;;;;;;;;;;;6.40;99.90;;;;;;5014128;28;19944;-89
2022/11/15 04:31:25;;;;;;;;;;;7.40;99.90;;;;;;5036629;28;19936;-90
2022/11/15 04:33:53;;;;;;;;;;;7.70;99.90;;;;;;5022982;28;19925;-90
2022/11/15 04:39:06;;;;;;;;;;;6.40;99.90;;;;;;5039139;28;19933;-88
2022/11/15 04:41:32;;;;;;;;;;;7.40;99.90;;;;;;5011292;28;19925;-89
2022/11/15 04:44:00;;;;;;;;;;;7.40;99.90;;;;;;5000710;28;20027;-89
2022/11/15 04:46:26;;;;;;;;;;;6.30;99.90;;;;;;5019286;28;19964;-89
2022/11/15 04:48:52;;;;;;;;;;;5.90;99.90;;;;;;5014061;28;19972;-90
2022/11/15 04:51:21;;;;;;;;;;;7.70;99.90;;;;;;5022851;28;19925;-89
2022/11/15 04:53:49;;;;;;;;;;;6.00;99.90;;;;;;5028702;28;19968;-89
2022/11/15 04:56:26;;;;;;;;;;;7.40;99.90;;;;;;5029379;28;19932;-88
2022/11/15 04:58:51;;;;;;;;;;;7.70;99.90;;;;;;5035602;28;19924;-90
2022/11/15 05:01:20;;;;;;;;;;;7.60;99.90;;;;;;5021106;28;19935;-89
2022/11/15 05:06:34;;;;;;;;;;;7.50;99.90;;;;;;5042286;28;19933;-89
2022/11/15 05:09:02;;;;;;;;;;;7.50;99.90;;;;;;5017870;28;19925;-89
2022/11/15 05:11:28;;;;;;;;;;;8.00;99.90;;;;;;5023102;28;19925;-87
2022/11/15 05:13:56;;;;;;;;;;;7.60;99.90;;;;;;5016336;28;19933;-89
2022/11/15 05:16:22;;;;;;;;;;;7.60;99.90;;;;;;5019612;28;19925;-89
2022/11/15 05:18:52;;;;;;;;;;;7.60;99.90;;;;;;5019418;28;19928;-89
2022/11/15 05:21:18;;;;;;;;;;;6.90;99.90;;;;;;5014048;28;19932;-89
2022/11/15 05:23:48;;;;;;;;;;;7.80;99.90;;;;;;5015079;28;20265;-89
2022/11/15 05:26:17;;;;;;;;;;;7.70;99.90;;;;;;5018165;28;19932;-88
2022/11/15 05:28:43;;;;;;;;;;;8.70;99.90;;;;;;5018429;28;19939;-89
2022/11/15 05:31:13;;;;;;;;;;;7.70;99.90;;;;;;5022703;28;19992;-89
2022/11/15 05:33:42;;;;;;;;;;;7.70;99.90;;;;;;5037417;28;19925;-88
2022/11/15 05:36:40;;;;;;;;;;;7.70;99.90;;;;;;5042456;28;19913;-90
2022/11/15 05:39:06;;;;;;;;;;;7.70;99.90;;;;;;5015808;28;19920;-89
2022/11/15 05:41:34;;;;;;;;;;;7.70;99.90;;;;;;5042385;28;19992;-88
2022/11/15 05:44:01;;;;;;;;;;;7.80;99.90;;;;;;5041893;28;19986;-89
2022/11/15 05:46:27;;;;;;;;;;;6.60;99.90;;;;;;5059348;28;19951;-89
2022/11/15 05:48:56;;;;;;;;;;;7.20;99.90;;;;;;5042561;28;19972;-89
2022/11/15 05:51:22;;;;;;;;;;;8.10;99.90;;;;;;5023434;28;19953;-89
2022/11/15 05:53:48;;;;;;;;;;;8.20;99.90;;;;;;5041256;28;19913;-88
2022/11/15 05:56:15;;;;;;;;;;;8.10;99.90;;;;;;5040766;28;19929;-89
2022/11/15 05:58:41;;;;;;;;;;;7.90;99.90;;;;;;5020297;28;19986;-89
2022/11/15 06:01:12;;;;;;;;;;;8.10;99.90;;;;;;5019237;28;20304;-89
2022/11/15 06:03:37;;;;;;;;;;;8.20;99.90;;;;;;5019472;28;20174;-89
2022/11/15 06:06:06;;;;;;;;;;;8.20;99.90;;;;;;5018255;28;19925;-89
2022/11/15 06:08:39;;;;;;;;;;;7.40;99.90;;;;;;5023756;28;20025;-89
2022/11/15 06:11:05;;;;;;;;;;;8.40;99.90;;;;;;5023031;28;19932;-89
2022/11/15 06:13:31;;;;;;;;;;;8.20;99.90;;;;;;5019419;28;19956;-90
2022/11/15 06:16:03;;;;;;;;;;;8.40;99.90;;;;;;5010543;28;20003;-89
2022/11/15 06:18:35;;;;;;;;;;;8.20;99.90;;;;;;5019695;28;19964;-90
2022/11/15 06:21:01;;;;;;;;;;;6.70;99.90;;;;;;5018718;28;19984;-89
2022/11/15 06:23:27;;;;;;;;;;;8.30;99.90;;;;;;5018346;28;19925;-91
2022/11/15 06:25:53;;;;;;;;;;;8.30;99.90;;;;;;5008241;28;19990;-90
2022/11/15 06:28:19;;;;;;;;;;;6.90;99.90;;;;;;5034196;28;19943;-90
2022/11/15 06:30:47;;;;;;;;;;;8.40;99.90;;;;;;5017414;28;20031;-89
2022/11/15 06:33:12;;;;;;;;;;;7.20;99.90;;;;;;5026849;28;20324;-89
2022/11/15 06:35:46;;;;;;;;;;;8.60;99.90;;;;;;5030888;28;19940;-91
2022/11/15 06:38:14;;;;;;;;;;;8.50;99.90;;;;;;5014001;28;19929;-89
2022/11/15 06:40:47;;;;;;;;;;;8.50;99.90;;;;;;5036234;28;19933;-91
2022/11/15 06:43:14;;;;;;;;;;;8.50;99.90;;;;;;5003147;28;20295;-90
2022/11/15 06:45:42;;;;;;;;;;;8.60;99.90;;;;;;5002938;28;20299;-91
2022/11/15 06:48:11;;;;;;;;;;;8.30;99.90;;;;;;5031224;28;19928;-89
2022/11/15 06:50:39;;;;;;;;;;;8.60;99.90;;;;;;5020698;28;19925;-89
2022/11/15 06:53:15;;;;;;;;;;;8.60;99.90;;;;;;5039314;28;19975;-89
2022/11/15 06:55:45;;;;;;;;;;;8.70;99.90;;;;;;5041017;28;19968;-90
2022/11/15 07:01:05;;;;;;;;;;;9.00;99.90;;;;;;5013170;28;19925;-91
2022/11/15 07:03:50;;;;;;;;;;;9.00;99.90;;;;;;5054661;28;20309;-91
2022/11/15 07:06:24;;;;;;;;;;;9.90;99.90;;;;;;5000415;28;19924;-89
2022/11/15 07:12:44;;;;;;;;;;;9.00;99.90;;;;;;4936993;29;19934;-90
2022/11/15 07:18:55;;;;;;;;;;;;;;;;;;;;;
2022/11/15 07:21:43;;;;;;;;;;;9.10;99.90;;;;;;5036675;28;21317;-88
2022/11/15 07:24:27;;;;;;;;;;;8.00;99.90;;;;;;5017544;28;19932;-89
2022/11/15 07:30:35;;;;;;;;;;;9.00;99.90;;;;;;5018021;28;19925;-91
2022/11/15 07:37:02;;;;;;;;;;;;;;;;;;;;;
2022/11/15 07:40:14;;;;;;;;;;;;;;;;;;;;;
2022/11/15 07:46:01;;;;;;;;;;;9.10;99.90;;;;;;5025437;28;19972;-92
2022/11/15 07:48:36;;;;;;;;;;;9.30;99.90;;;;;;5026430;28;19928;-91
2022/11/15 07:54:10;;;;;;;;;;;9.20;99.90;;;;;;4997439;28;19932;-90
2022/11/15 07:56:46;;;;;;;;;;;9.50;99.90;;;;;;5037902;28;19960;-90
2022/11/15 07:59:54;;;;;;;;;;;9.30;99.90;;;;;;5022763;28;19933;-91
2022/11/15 08:02:40;;;;;;;;;;;9.40;99.90;;;;;;5038979;28;19925;-90
2022/11/15 08:05:48;;;;;;;;;;;10.20;99.90;;;;;;5018424;28;19928;-90
2022/11/15 08:11:56;;;;;;;;;;;9.10;99.90;;;;;;5016906;28;19933;-91
2022/11/15 08:14:42;;;;;;;;;;;;;;;;;;;;;
2022/11/15 08:17:42;;;;;;;;;;;;;;;;;;;;;
2022/11/15 08:25:12;;;;;;;;;;;9.30;99.90;;;;;;4927094;29;19935;-90
2022/11/15 08:30:53;;;;;;;;;;;9.80;99.90;;;;;;4928451;28;20017;-92
2022/11/15 08:33:26;;;;;;;;;;;9.70;99.90;;;;;;4963727;28;19926;-89
2022/11/15 08:36:14;;;;;;;;;;;9.90;99.90;;;;;;5026999;28;19933;-91
2022/11/15 08:38:55;;;;;;;;;;;;;;;;;;;;;
2022/11/15 08:41:36;;;;;;;;;;;9.20;99.90;;;;;;5019456;28;20384;-90
2022/11/15 08:44:27;;;;;;;;;;;;;;;;;;;;;
2022/11/15 08:47:32;;;;;;;;;;;;;;;;;;;;;
2022/11/15 08:50:06;;;;;;;;;;;10.20;99.90;;;;;;4990641;28;19939;-91
2022/11/15 08:52:59;;;;;;;;;;;9.90;99.90;;;;;;5023833;28;20015;-91
2022/11/15 08:55:43;;;;;;;;;;;;;;;;;;;;;
2022/11/15 08:58:46;;;;;;;;;;;10.10;99.90;;;;;;5047477;28;19932;-91
2022/11/15 09:01:19;;;;;;;;;;;10.10;99.90;;;;;;5039387;28;19947;-85
2022/11/15 09:03:47;;;;;;;;;;;10.10;99.90;;;;;;5008624;28;19932;-84
2022/11/15 09:06:23;;;;;;;;;;;10.10;99.90;;;;;;5014783;28;19924;-89
2022/11/15 09:08:48;;;;;;;;;;;10.30;99.90;;;;;;5041768;28;19939;-88
2022/11/15 09:11:16;;;;;;;;;;;9.30;99.90;;;;;;5025797;28;19924;-90
2022/11/15 09:16:28;;;;;;;;;;;10.60;99.90;;;;;;5028966;28;19979;-89
2022/11/15 09:18:56;;;;;;;;;;;10.40;99.90;;;;;;4997622;28;20409;-89
2022/11/15 09:24:19;;;;;;;;;;;10.60;99.90;;;;;;5031709;28;20043;-90
2022/11/15 09:26:52;;;;;;;;;;;10.70;99.90;;;;;;4995037;28;19944;-89
2022/11/15 09:29:20;;;;;;;;;;;10.70;99.90;;;;;;5010271;28;19933;-88
2022/11/15 09:31:46;;;;;;;;;;;10.60;99.90;;;;;;5031565;28;19933;-89
2022/11/15 09:34:12;;;;;;;;;;;10.60;99.90;;;;;;5011913;28;19939;-89
2022/11/15 09:36:47;;;;;;;;;;;10.70;99.90;;;;;;5013058;28;19925;-88
2022/11/15 09:39:25;;;;;;;;;;;;;;;;;;;;;
2022/11/15 09:42:17;;;;;;;;;;;10.70;99.90;;;;;;5029476;28;19948;-88
2022/11/15 09:45:04;;;;;;;;;;;10.90;99.90;;;;;;5032441;28;19944;-88
2022/11/15 09:47:40;;;;;;;;;;;11.00;99.90;;;;;;5009223;28;19971;-90
2022/11/15 09:50:19;;;;;;;;;;;12.20;99.90;;;;;;5010459;28;20372;-89
2022/11/15 09:52:48;;;;;;;;;;;10.70;99.90;;;;;;5016549;28;19970;-89
2022/11/15 09:55:21;;;;;;;;;;;10.50;99.90;;;;;;5018953;28;20368;-88
2022/11/15 09:57:57;;;;;;;;;;;10.00;99.90;;;;;;5009619;28;19921;-90
2022/11/15 10:00:38;;;;;;;;;;;11.10;99.90;;;;;;5034438;28;19921;-91
2022/11/15 10:03:33;;;;;;;;;;;11.00;99.90;;;;;;5041951;28;19943;-90
2022/11/15 10:06:04;;;;;;;;;;;11.10;99.90;;;;;;5019602;28;19929;-90
2022/11/15 10:08:45;;;;;;;;;;;11.50;99.90;;;;;;5052675;28;19934;-89
2022/11/15 10:11:15;;;;;;;;;;;11.10;99.90;;;;;;5040796;28;19996;-91
2022/11/15 10:13:46;;;;;;;;;;;11.00;99.90;;;;;;5060531;28;19920;-91
2022/11/15 10:16:21;;;;;;;;;;;11.00;99.90;;;;;;5045269;28;19932;-89
2022/11/15 10:18:56;;;;;;;;;;;11.20;99.90;;;;;;5037978;28;19932;-89
2022/11/15 10:21:27;;;;;;;;;;;10.90;99.90;;;;;;5021398;28;20049;-90
2022/11/15 10:23:55;;;;;;;;;;;11.20;99.90;;;;;;5020235;28;19940;-89
2022/11/15 10:26:23;;;;;;;;;;;11.10;99.90;;;;;;5036220;28;20019;-89
2022/11/15 10:28:51;;;;;;;;;;;11.30;99.90;;;;;;5018273;28;20023;-89
2022/11/15 10:31:25;;;;;;;;;;;11.20;99.90;;;;;;5018215;28;19932;-89
2022/11/15 10:34:13;;;;;;;;;;;11.20;99.90;;;;;;5016545;28;19924;-89
2022/11/15 10:36:56;;;;;;;;;;;11.20;99.90;;;;;;5037638;28;19978;-89
2022/11/15 10:39:22;;;;;;;;;;;11.20;99.90;;;;;;5033343;28;19931;-90
2022/11/15 10:41:57;;;;;;;;;;;;;;;;;;;;;
2022/11/15 10:44:27;;;;;;;;;;;9.80;99.90;;;;;;5034873;28;19936;-89
2022/11/15 10:46:56;;;;;;;;;;;11.30;99.90;;;;;;5019632;28;19928;-89
2022/11/15 10:49:36;;;;;;;;;;;12.80;99.90;;;;;;5018293;28;19939;-91
2022/11/15 10:52:14;;;;;;;;;;;10.40;99.90;;;;;;5019470;28;20003;-92
2022/11/15 10:54:55;;;;;;;;;;;11.40;99.90;;;;;;5018675;28;20701;-90
2022/11/15 10:57:25;;;;;;;;;;;11.20;99.90;;;;;;5017256;28;19960;-90
2022/11/15 11:00:11;;;;;;;;;;;11.40;99.90;;;;;;5033634;28;19994;-89
2022/11/15 11:02:40;;;;;;;;;;;11.20;99.90;;;;;;5015591;28;19944;-89
2022/11/15 11:05:25;;;;;;;;;;;11.30;99.90;;;;;;5011043;28;19986;-90
2022/11/15 11:08:01;;;;;;;;;;;11.60;99.90;;;;;;5034294;28;19947;-89
2022/11/15 11:10:29;;;;;;;;;;;11.50;99.90;;;;;;5001870;28;19933;-88
2022/11/15 11:13:11;;;;;;;;;;;11.30;99.90;;;;;;5026108;28;19968;-89
2022/11/15 11:15:37;;;;;;;;;;;11.40;99.90;;;;;;5016438;28;19924;-88
2022/11/15 11:18:03;;;;;;;;;;;11.60;99.90;;;;;;5032388;28;19979;-89
2022/11/15 11:20:32;;;;;;;;;;;11.60;99.90;;;;;;5016204;28;20035;-89
2022/11/15 11:23:16;;;;;;;;;;;11.70;99.90;;;;;;5030619;28;19924;-88
2022/11/15 11:26:05;;;;;;;;;;;11.70;99.90;;;;;;5013467;28;20389;-89
2022/11/15 11:28:46;;;;;;;;;;;11.80;99.90;;;;;;5033288;28;19939;-91
2022/11/15 11:31:14;;;;;;;;;;;11.90;99.90;;;;;;5018338;28;19948;-91
2022/11/15 11:33:50;;;;;;;;;;;11.90;99.90;;;;;;5019525;28;19943;-89
2022/11/15 11:36:32;;;;;;;;;;;11.00;99.90;;;;;;5011552;28;19933;-89
2022/11/15 11:39:01;;;;;;;;;;;12.00;99.90;;;;;;5014521;28;19938;-89
2022/11/15 11:41:34;;;;;;;;;;;12.00;99.90;;;;;;5007256;28;19929;-89
2022/11/15 11:44:34;;;;;;;;;;;12.20;99.90;;;;;;5014822;28;19976;-89
2022/11/15 11:47:07;;;;;;;;;;;12.50;99.90;;;;;;4998244;28;19944;-89
2022/11/15 11:49:53;;;;;;;;;;;11.50;99.90;;;;;;5013449;28;19925;-88
2022/11/15 11:52:46;;;;;;;;;;;11.70;99.90;;;;;;5025056;28;20488;-90
2022/11/15 11:55:18;;;;;;;;;;;11.60;99.90;;;;;;5013951;28;19940;-89
2022/11/15 11:57:59;;;;;;;;;;;11.60;99.90;;;;;;5007024;28;20372;-89
2022/11/15 12:00:28;;;;;;;;;;;14.00;99.90;;;;;;5008549;28;19925;-90
2022/11/15 12:03:06;;;;;;;;;;;11.60;99.90;;;;;;5014719;28;19959;-90
2022/11/15 12:05:47;;;;;;;;;;;11.30;99.90;;;;;;5026472;28;19947;-90
2022/11/15 12:08:22;;;;;;;;;;;12.80;99.90;;;;;;5030956;28;19933;-90
2022/11/15 12:11:10;;;;;;;;;;;11.70;99.90;;;;;;5013095;28;19939;-89
2022/11/15 12:13:49;;;;;;;;;;;;;;;;;;;;;
2022/11/15 12:16:21;;;;;;;;;;;11.40;99.90;;;;;;5019443;28;19955;-89
2022/11/15 12:18:59;;;;;;;;;;;12.90;99.90;;;;;;5014435;28;19932;-90
2022/11/15 12:21:27;;;;;;;;;;;12.50;99.90;;;;;;5014001;28;19933;-91
2022/11/15 12:24:06;;;;;;;;;;;;;;;;;;;;;
2022/11/15 12:26:52;;;;;;;;;;;11.00;99.90;;;;;;5028076;28;20372;-90
2022/11/15 12:29:24;;;;;;;;;;;12.10;99.90;;;;;;5011257;28;19924;-90
2022/11/15 12:32:04;;;;;;;;;;;12.00;99.90;;;;;;5014316;28;19987;-90
2022/11/15 12:34:33;;;;;;;;;;;11.20;99.90;;;;;;5011880;28;19940;-91
2022/11/15 12:37:33;;;;;;;;;;;12.00;99.90;;;;;;5013057;28;19935;-91
2022/11/15 12:40:17;;;;;;;;;;;;;;;;;;;;;
2022/11/15 12:43:20;;;;;;;;;;;12.30;99.90;;;;;;5028785;28;19928;-90
2022/11/15 12:45:46;;;;;;;;;;;12.30;99.90;;;;;;5012859;28;19933;-89
2022/11/15 12:48:30;;;;;;;;;;;12.20;99.90;;;;;;5010866;28;19939;-91
2022/11/15 12:50:59;;;;;;;;;;;11.60;99.90;;;;;;5012456;28;19940;-90
2022/11/15 12:53:45;;;;;;;;;;;13.70;99.90;;;;;;5015272;28;19992;-88
2022/11/15 12:56:52;;;;;;;;;;;;;;;;;;;;;
2022/11/15 13:03:02;;;;;;;;;;;12.70;99.90;;;;;;5028232;28;19921;-90
2022/11/15 13:05:54;;;;;;;;;;;12.70;99.90;;;;;;5036553;28;19936;-90
2022/11/15 13:12:01;;;;;;;;;;;;;;;;;;;;;
2022/11/15 13:18:21;;;;;;;;;;;;;;;;;;;;;
2022/11/15 13:22:50;;;;;;;;;;;12.90;99.90;;;;;;5026980;28;19979;-92
2022/11/15 13:24:05;;;;;;;;;;;;;;;;;;;;;
2022/11/15 13:26:56;;;;;;;;;;;12.70;99.90;;;;;;5031392;28;19930;-90
2022/11/15 13:29:22;;;;;;;;;;;12.00;99.90;;;;;;5018584;28;19932;-90
2022/11/15 13:31:56;;;;;;;;;;;12.60;99.90;;;;;;5016891;28;19925;-90
2022/11/15 13:34:46;;;;;;;;;;;12.50;99.90;;;;;;5016110;28;19924;-90
2022/11/15 13:37:44;;;;;;;;;;;;;;;;;;;;;
2022/11/15 13:40:21;;;;;;;;;;;12.50;99.90;;;;;;5030323;28;20028;-90
2022/11/15 13:43:02;;;;;;;;;;;12.30;99.90;;;;;;5016202;28;19944;-90
2022/11/15 13:48:37;;;;;;;;;;;12.20;99.90;;;;;;5026897;28;20457;-90
2022/11/15 13:51:06;;;;;;;;;;;11.30;99.90;;;;;;5030561;28;20378;-89
2022/11/15 13:53:57;;;;;;;;;;;12.30;99.90;;;;;;5027820;28;20022;-91
2022/11/15 13:59:34;;;;;;;;;;;12.10;99.90;;;;;;5017678;28;19939;-87
2022/11/15 14:02:30;;;;;;;;;;;12.20;99.90;;;;;;5009962;28;20342;-90
2022/11/15 14:05:46;;;;;;;;;;;;;;;;;;;;;
2022/11/15 14:08:31;;;;;;;;;;;12.10;99.90;;;;;;5024136;28;19943;-91
2022/11/15 14:11:19;;;;;;;;;;;;;;;;;;;;;
2022/11/15 14:16:59;;;;;;;;;;;11.90;99.90;;;;;;5048228;28;19920;-90
2022/11/15 14:19:32;;;;;;;;;;;11.90;99.90;;;;;;5032486;28;19924;-89
2022/11/15 14:22:37;;;;;;;;;;;11.80;99.90;;;;;;5032460;28;19980;-90
2022/11/15 14:25:21;;;;;;;;;;;12.10;99.90;;;;;;4971914;28;19921;-92
2022/11/15 14:28:25;;;;;;;;;;;10.30;99.90;;;;;;5034667;28;19920;-90
2022/11/15 14:31:04;;;;;;;;;;;11.80;99.90;;;;;;4982330;28;19922;-91
2022/11/15 14:33:43;;;;;;;;;;;11.70;99.90;;;;;;5025519;28;20058;-91
2022/11/15 14:36:27;;;;;;;;;;;10.90;99.90;;;;;;5041423;28;19921;-92
2022/11/15 14:39:05;;;;;;;;;;;11.90;99.90;;;;;;5010415;28;19932;-90
2022/11/15 14:41:55;;;;;;;;;;;11.50;99.90;;;;;;5017409;28;20020;-91
2022/11/15 14:47:50;;;;;;;;;;;11.50;99.90;;;;;;4990138;28;19925;-90
2022/11/15 14:50:46;;;;;;;;;;;10.10;99.90;;;;;;5015684;28;20028;-91
2022/11/15 14:53:36;;;;;;;;;;;10.30;99.90;;;;;;5030393;28;19967;-90
2022/11/15 14:56:04;;;;;;;;;;;11.20;99.90;;;;;;5008288;28;19971;-89
2022/11/15 14:58:33;;;;;;;;;;;11.00;99.90;;;;;;5021881;28;19925;-89
2022/11/15 15:01:13;;;;;;;;;;;10.90;99.90;;;;;;5034187;28;19924;-91
2022/11/15 15:03:48;;;;;;;;;;;10.90;99.90;;;;;;5021763;28;19931;-89
2022/11/15 15:06:14;;;;;;;;;;;11.10;99.90;;;;;;5014529;28;19925;-88
2022/11/15 15:08:50;;;;;;;;;;;10.80;99.90;;;;;;5031762;28;19925;-89
2022/11/15 15:11:26;;;;;;;;;;;10.90;99.90;;;;;;5014226;28;19943;-88
2022/11/15 15:13:55;;;;;;;;;;;10.60;99.90;;;;;;5010834;28;19999;-87
2022/11/15 15:16:21;;;;;;;;;;;10.60;99.90;;;;;;5015088;28;19925;-88
2022/11/15 15:18:47;;;;;;;;;;;10.40;99.90;;;;;;5013556;28;19932;-88
2022/11/15 15:21:27;;;;;;;;;;;10.70;99.90;;;;;;5010981;28;20323;-88
2022/11/15 15:23:56;;;;;;;;;;;10.50;99.90;;;;;;5011439;28;19955;-88
2022/11/15 15:26:24;;;;;;;;;;;10.10;99.90;;;;;;5012017;28;19990;-88
2022/11/15 15:28:59;;;;;;;;;;;9.40;99.90;;;;;;5031124;28;19983;-89
2022/11/15 15:31:41;;;;;;;;;;;11.50;99.90;;;;;;5017362;28;19933;-89
2022/11/15 15:34:18;;;;;;;;;;;10.50;99.90;;;;;;5003173;28;20376;-90
2022/11/15 15:37:06;;;;;;;;;;;10.50;99.90;;;;;;5016909;28;20058;-90
2022/11/15 15:39:40;;;;;;;;;;;10.30;99.90;;;;;;5013361;28;19972;-90
2022/11/15 15:42:06;;;;;;;;;;;10.30;99.90;;;;;;5004115;28;19929;-87
2022/11/15 15:44:32;;;;;;;;;;;10.20;99.90;;;;;;5025101;28;19975;-89
2022/11/15 15:47:01;;;;;;;;;;;10.20;99.90;;;;;;5027434;28;19924;-91
2022/11/15 15:49:59;;;;;;;;;;;;;;;;;;;;;
2022/11/15 15:53:05;;;;;;;;;;;;;;;;;;;;;
2022/11/15 15:55:41;;;;;;;;;;;9.70;99.90;;;;;;4982537;28;20035;-89
2022/11/15 15:58:15;;;;;;;;;;;10.60;99.90;;;;;;5013735;28;19975;-90
2022/11/15 16:00:44;;;;;;;;;;;10.30;99.90;;;;;;5021538;28;20028;-90
2022/11/15 16:03:20;;;;;;;;;;;10.50;99.90;;;;;;5015955;28;20412;-90
2022/11/15 16:05:46;;;;;;;;;;;10.30;99.90;;;;;;5014739;28;20292;-90
2022/11/15 16:08:27;;;;;;;;;;;10.40;99.90;;;;;;5017261;28;19925;-90
2022/11/15 16:13:52;;;;;;;;;;;10.30;99.90;;;;;;5032429;28;20287;-90
2022/11/15 16:16:50;;;;;;;;;;;8.70;99.90;;;;;;5028424;28;19924;-90
2022/11/15 16:19:26;;;;;;;;;;;12.30;99.90;;;;;;5022270;28;19925;-89
2022/11/15 16:22:01;;;;;;;;;;;10.10;99.90;;;;;;5038773;28;20450;-89
2022/11/15 16:24:34;;;;;;;;;;;9.30;99.90;;;;;;5017493;28;19925;-89
2022/11/15 16:27:15;;;;;;;;;;;10.10;99.90;;;;;;5026115;28;19929;-86
2022/11/15 16:29:52;;;;;;;;;;;10.10;99.90;;;;;;5021199;28;19931;-89
2022/11/15 16:32:22;;;;;;;;;;;11.40;99.90;;;;;;5011727;28;19924;-88
2022/11/15 16:35:10;;;;;;;;;;;;;;;;;;;;;
2022/11/15 16:37:53;;;;;;;;;;;;;;;;;;;;;
2022/11/15 16:40:30;;;;;;;;;;;10.20;99.90;;;;;;5036423;28;19931;-89
2022/11/15 16:43:54;;;;;;;;;;;10.30;99.90;;;;;;5020495;28;19979;-89
2022/11/15 16:46:27;;;;;;;;;;;10.10;99.90;;;;;;4969980;28;20016;-89
2022/11/15 16:49:03;;;;;;;;;;;11.00;99.90;;;;;;4974209;28;20024;-89
2022/11/15 16:51:50;;;;;;;;;;;10.10;99.90;;;;;;5013950;28;20018;-91
2022/11/15 16:54:24;;;;;;;;;;;11.80;99.90;;;;;;5032630;28;19983;-90
2022/11/15 17:00:08;;;;;;;;;;;10.40;99.90;;;;;;5034199;28;19929;-91